Time;durP1;ratioP1;P1;durP2;ratioP2;P2;SDS_P1;SDS_P2;PMS_P1;PMS_P2;Temp;Humidity;BMP_temperature;BMP_pressure;BME280_temperature;BME280_humidity;BME280_pressure;Samples;Min_cycle;Max_cycle;Signal;HPM_P1;HPM_P2
2021/03/30 00:04:22;;;;;;;25.20;18.30;;;;;;;8.91;78.93;100718.98;471352;1169;115052;-68
2021/03/30 00:14:26;;;;;;;22.70;16.93;;;;;;;8.91;79.04;100712.91;471550;1169;114631;-68
2021/03/30 00:24:30;;;;;;;23.55;17.10;;;;;;;8.91;79.37;100724.22;472324;1170;114224;-68
2021/03/30 00:34:33;;;;;;;25.17;16.30;;;;;;;8.91;79.05;100712.91;471485;1168;114410;-68
2021/03/30 00:44:37;;;;;;;25.07;18.97;;;;;;;8.74;79.30;100708.33;472984;1170;114607;-67
2021/03/30 00:54:41;;;;;;;23.30;18.20;;;;;;;8.77;79.68;100711.69;471846;1171;114501;-68
2021/03/30 01:04:45;;;;;;;17.10;14.83;;;;;;;8.77;79.58;100706.45;471497;1170;114520;-68
2021/03/30 01:15:02;;;;;;;24.10;15.83;;;;;;;8.81;79.82;100707.16;472323;1168;115376;-68
2021/03/30 01:25:08;;;;;;;23.45;18.38;;;;;;;8.89;80.02;100698.99;471861;1170;114204;-68
2021/03/30 01:35:15;;;;;;;24.65;18.90;;;;;;;8.92;79.84;100704.97;471771;1168;167087;-68
2021/03/30 01:45:21;;;;;;;22.83;18.23;;;;;;;8.91;79.71;100708.51;471848;1170;114494;-68
2021/03/30 01:55:26;;;;;;;23.25;19.45;;;;;;;8.93;80.04;100706.67;471708;1169;114848;-68
2021/03/30 02:05:30;;;;;;;26.15;19.80;;;;;;;8.92;80.09;100704.13;472120;1171;114429;-68
2021/03/30 02:15:34;;;;;;;23.43;19.00;;;;;;;8.92;79.99;100673.53;471605;1169;114691;-68
2021/03/30 02:25:43;;;;;;;27.05;20.45;;;;;;;8.85;80.28;100689.56;471695;1170;114129;-69
2021/03/30 02:35:49;;;;;;;27.45;18.60;;;;;;;8.86;80.39;100683.41;471658;1168;114730;-68
2021/03/30 02:45:55;;;;;;;24.80;21.10;;;;;;;8.80;80.46;100680.13;471756;1168;114545;-68
2021/03/30 02:56:01;;;;;;;29.83;23.00;;;;;;;8.78;80.07;100666.25;472114;1169;114494;-69
2021/03/30 03:06:06;;;;;;;24.27;20.37;;;;;;;8.74;80.57;100671.66;471955;1168;114661;-67
2021/03/30 03:16:12;;;;;;;32.80;25.53;;;;;;;8.65;80.86;100668.48;471644;1170;114703;-69
2021/03/30 03:26:15;;;;;;;28.05;23.60;;;;;;;8.64;81.18;100676.38;472645;1171;114560;-68
2021/03/30 03:36:20;;;;;;;32.13;23.63;;;;;;;8.74;80.95;100677.73;471864;1168;114155;-69
2021/03/30 03:46:24;;;;;;;32.67;25.10;;;;;;;8.77;81.16;100671.53;471968;1171;114192;-69
2021/03/30 03:56:31;;;;;;;31.80;22.57;;;;;;;8.80;81.05;100676.64;471560;1169;114149;-69
2021/03/30 04:06:40;;;;;;;25.50;22.63;;;;;;;8.78;81.08;100697.67;472854;1170;114139;-68
2021/03/30 04:16:44;;;;;;;26.00;21.47;;;;;;;8.78;81.39;100697.67;472401;1170;114141;-67
2021/03/30 04:26:48;;;;;;;24.63;21.50;;;;;;;8.79;81.33;100702.00;472768;1170;114564;-69
2021/03/30 04:36:51;;;;;;;28.10;20.80;;;;;;;8.79;81.29;100695.89;472286;1169;114506;-69
2021/03/30 04:46:57;;;;;;;26.30;20.85;;;;;;;8.85;81.55;100702.66;471888;1168;114433;-68
2021/03/30 04:57:01;;;;;;;27.50;22.50;;;;;;;8.89;81.36;100717.33;472650;1168;114576;-72
2021/03/30 05:07:06;;;;;;;32.73;21.90;;;;;;;8.97;81.32;100736.23;472046;1169;114676;-69
2021/03/30 05:17:11;;;;;;;24.07;18.67;;;;;;;9.00;81.51;100724.78;472441;1169;114502;-69
2021/03/30 05:27:14;;;;;;;32.45;21.40;;;;;;;9.12;81.31;100724.30;472630;1169;114598;-68
2021/03/30 05:37:18;;;;;;;33.13;23.63;;;;;;;9.23;81.20;100732.58;471912;1168;114512;-68
2021/03/30 05:47:25;;;;;;;30.47;22.20;;;;;;;9.32;81.46;100743.62;472479;1170;114187;-70
2021/03/30 05:57:30;;;;;;;28.37;20.87;;;;;;;9.44;81.13;100756.22;472872;1170;114167;-67
2021/03/30 06:07:37;;;;;;;25.60;22.35;;;;;;;9.49;81.35;100758.66;472744;1169;114866;-69
2021/03/30 06:17:42;;;;;;;23.63;19.40;;;;;;;9.63;81.24;100761.56;471629;1170;114219;-70
2021/03/30 06:27:46;;;;;;;22.05;17.75;;;;;;;9.87;81.23;100760.58;471522;1169;114845;-69
2021/03/30 06:37:52;;;;;;;30.38;20.40;;;;;;;10.07;80.98;100765.84;471587;1168;114401;-72
2021/03/30 06:47:58;;;;;;;22.53;18.07;;;;;;;10.38;80.72;100775.00;471760;1170;114753;-71
2021/03/30 06:58:04;;;;;;;26.37;20.40;;;;;;;10.44;80.26;100781.79;471512;1167;114623;-68
2021/03/30 07:08:09;;;;;;;28.37;20.33;;;;;;;10.50;80.15;100775.41;470990;1169;114650;-69
2021/03/30 07:18:18;;;;;;;23.23;18.03;;;;;;;10.64;80.35;100777.42;451883;1168;20002350;-70
2021/03/30 07:28:27;;;;;;;28.65;18.85;;;;;;;10.89;79.74;100774.50;472032;1169;114821;-72
2021/03/30 07:38:38;;;;;;;27.25;20.60;;;;;;;11.06;79.64;100781.59;471548;1170;114989;-67
2021/03/30 07:48:43;;;;;;;23.93;18.97;;;;;;;11.67;79.42;100788.39;471540;1169;114839;-65
2021/03/30 07:58:47;;;;;;;24.47;17.77;;;;;;;13.18;78.58;100794.61;472093;1168;116032;-72
2021/03/30 08:09:00;;;;;;;20.90;15.25;;;;;;;15.75;75.22;100787.91;470933;1169;114729;-67
2021/03/30 08:19:06;;;;;;;19.50;14.97;;;;;;;18.22;71.31;100788.11;481040;1170;114478;-69
2021/03/30 08:29:13;;;;;;;19.50;16.40;;;;;;;23.74;64.21;100787.65;471205;1170;114454;-63
2021/03/30 08:39:36;;;;;;;13.87;11.83;;;;;;;26.39;57.00;100784.78;471774;1168;114871;-70
2021/03/30 08:49:42;;;;;;;12.85;10.60;;;;;;;23.97;52.19;100781.78;471357;1169;114653;-62
2021/03/30 08:59:47;;;;;;;11.45;10.10;;;;;;;20.27;54.40;100792.89;472219;1171;114696;-65
2021/03/30 09:09:51;;;;;;;11.85;9.40;;;;;;;19.46;55.71;100794.27;472233;1168;114724;-64
2021/03/30 09:19:56;;;;;;;10.80;9.10;;;;;;;18.66;56.13;100784.74;471773;1171;114678;-63
2021/03/30 09:30:03;;;;;;;9.30;6.57;;;;;;;18.07;54.89;100782.19;471235;1171;114786;-64
2021/03/30 09:40:10;;;;;;;9.00;4.88;;;;;;;16.24;58.06;100789.06;471655;1169;113999;-64
2021/03/30 09:50:29;;;;;;;12.15;5.60;;;;;;;15.57;60.19;100795.28;472184;1171;114281;-63
2021/03/30 10:00:37;;;;;;;6.87;4.80;;;;;;;14.77;61.22;100794.16;471935;1169;114567;-65
2021/03/30 10:10:45;;;;;;;5.75;4.20;;;;;;;14.39;62.14;100794.72;472066;1169;114271;-64
2021/03/30 10:20:51;;;;;;;8.90;4.27;;;;;;;14.08;63.55;100815.05;471896;1169;114551;-63
2021/03/30 10:30:59;;;;;;;7.63;5.67;;;;;;;13.95;64.55;100805.21;471413;1169;114440;-67
2021/03/30 10:41:08;;;;;;;7.47;4.80;;;;;;;13.95;64.56;100805.21;471536;1171;114106;-71
2021/03/30 10:51:12;;;;;;;5.45;4.40;;;;;;;14.01;64.77;100809.28;471712;1170;114040;-61
2021/03/30 11:01:16;;;;;;;9.73;5.87;;;;;;;13.94;64.82;100805.30;471604;1170;113964;-67
2021/03/30 11:11:20;;;;;;;7.70;4.50;;;;;;;13.96;64.90;100813.97;471684;1170;114704;-69
2021/03/30 11:21:24;;;;;;;3.77;3.13;;;;;;;13.97;64.64;100813.89;472115;1168;114198;-71
2021/03/30 11:31:43;;;;;;;3.17;2.70;;;;;;;14.19;64.37;100812.62;472022;1168;114398;-68
2021/03/30 11:41:47;;;;;;;1.63;1.17;;;;;;;13.85;64.88;100794.36;471860;1169;115851;-68
2021/03/30 11:51:51;;;;;;;2.00;1.43;;;;;;;14.11;64.80;100791.09;473292;1170;114615;-65
2021/03/30 12:01:55;;;;;;;1.65;1.50;;;;;;;14.06;65.08;100775.52;472186;1170;114723;-68
2021/03/30 12:11:59;;;;;;;4.53;1.30;;;;;;;14.24;65.01;100780.64;471907;1170;113957;-68
2021/03/30 12:22:04;;;;;;;1.60;1.50;;;;;;;14.08;65.24;100775.43;471686;1171;114008;-64
2021/03/30 12:32:11;;;;;;;1.50;0.90;;;;;;;14.18;65.27;100768.66;471429;1169;114060;-63
2021/03/30 12:42:15;;;;;;;4.43;1.17;;;;;;;14.52;65.48;100763.09;471934;1171;114723;-63
2021/03/30 12:52:19;;;;;;;1.90;1.30;;;;;;;14.62;64.42;100752.81;471460;1171;114119;-63
2021/03/30 13:02:23;;;;;;;3.05;1.85;;;;;;;14.33;65.43;100752.80;471551;1171;114084;-63
2021/03/30 13:12:27;;;;;;;7.00;4.13;;;;;;;14.41;65.31;100746.09;471416;1168;114540;-69
2021/03/30 13:22:46;;;;;;;3.70;2.73;;;;;;;14.00;65.39;100733.65;472060;1170;115007;-70
2021/03/30 13:32:50;;;;;;;7.57;2.10;;;;;;;14.19;65.95;100719.30;472417;1169;114305;-62
2021/03/30 13:43:05;;;;;;;3.67;2.43;;;;;;;14.31;65.80;100730.92;471944;1169;114362;-65
2021/03/30 13:53:09;;;;;;;5.30;4.00;;;;;;;14.52;65.60;100713.73;471304;1169;114063;-65
2021/03/30 14:03:13;;;;;;;3.87;3.50;;;;;;;14.23;65.81;100710.27;455748;1169;20001903;-66
2021/03/30 14:13:20;;;;;;;5.37;3.83;;;;;;;14.26;65.89;100707.42;471224;1170;114474;-66
2021/03/30 14:23:47;;;;;;;6.00;4.13;;;;;;;14.06;66.08;100712.13;471508;1169;114392;-66
2021/03/30 14:33:52;;;;;;;4.87;4.00;;;;;;;14.45;65.82;100703.66;470980;1168;114125;-67
2021/03/30 14:44:02;;;;;;;5.13;4.63;;;;;;;14.41;65.93;100700.34;470950;1168;114423;-67
2021/03/30 14:54:26;;;;;;;3.87;3.57;;;;;;;14.58;65.62;100709.86;475116;1170;115342;-67
2021/03/30 15:04:31;;;;;;;4.25;3.85;;;;;;;14.60;65.58;100702.67;471467;1169;114012;-68
2021/03/30 15:14:34;;;;;;;4.75;3.25;;;;;;;14.70;65.13;100692.35;471566;1170;114204;-63
2021/03/30 15:24:38;;;;;;;5.10;4.20;;;;;;;14.29;65.09;100672.89;471938;1169;114459;-64
2021/03/30 15:34:46;;;;;;;4.83;4.33;;;;;;;14.43;65.79;100678.17;471771;1169;114374;-63
2021/03/30 15:44:56;;;;;;;4.97;3.77;;;;;;;14.68;64.98;100671.33;471656;1168;114440;-64
2021/03/30 15:55:19;;;;;;;5.77;4.80;;;;;;;14.23;65.36;100668.84;471495;1168;115498;-64
2021/03/30 16:05:26;;;;;;;5.30;4.55;;;;;;;13.93;65.97;100658.38;471733;1169;114027;-64
2021/03/30 16:15:30;;;;;;;9.40;4.70;;;;;;;13.74;66.34;100654.23;471544;1170;115615;-70
2021/03/30 16:25:33;;;;;;;4.97;4.57;;;;;;;13.47;67.01;100651.46;471971;1169;114805;-70
2021/03/30 16:35:37;;;;;;;6.40;4.50;;;;;;;13.23;67.54;100647.48;471746;1170;114455;-78
2021/03/30 16:45:41;;;;;;;7.57;5.87;;;;;;;13.00;67.94;100651.48;471667;1170;114551;-63
2021/03/30 16:55:45;;;;;;;8.97;6.50;;;;;;;12.75;68.37;100650.20;471201;1168;114871;-64
2021/03/30 17:05:49;;;;;;;11.65;9.65;;;;;;;12.50;69.10;100654.22;471699;1170;114807;-72
2021/03/30 17:15:54;;;;;;;24.90;17.70;;;;;;;12.22;69.56;100647.84;471357;1168;114411;-62
2021/03/30 17:25:59;;;;;;;54.55;39.75;;;;;;;11.93;70.10;100652.00;471437;1169;114355;-64
2021/03/30 17:36:08;;;;;;;28.47;21.57;;;;;;;11.65;70.65;100656.92;471919;1168;114820;-64
2021/03/30 17:46:12;;;;;;;22.20;12.85;;;;;;;11.33;71.21;100655.01;472408;1170;115574;-63
2021/03/30 17:56:15;;;;;;;18.80;14.00;;;;;;;11.05;71.50;100661.62;472809;1168;115138;-62
2021/03/30 18:06:19;;;;;;;14.37;11.53;;;;;;;10.77;71.93;100668.22;471955;1169;114829;-63
2021/03/30 18:16:23;;;;;;;20.95;14.85;;;;;;;10.47;72.63;100660.84;464262;1170;10113610;-67
2021/03/30 18:26:27;;;;;;;28.77;19.10;;;;;;;10.18;72.96;100663.02;471558;1171;116045;-67
2021/03/30 18:36:31;;;;;;;50.33;35.50;;;;;;;9.92;73.84;100665.02;471328;1170;114979;-63
2021/03/30 18:46:37;;;;;;;55.47;41.47;;;;;;;9.69;74.78;100660.80;471301;1169;114551;-65
2021/03/30 18:56:40;;;;;;;44.60;34.30;;;;;;;9.55;75.25;100658.76;471458;1170;115974;-66
2021/03/30 19:06:45;;;;;;;48.05;37.05;;;;;;;9.25;75.39;100644.27;471376;1169;114569;-64
2021/03/30 19:16:49;;;;;;;67.63;50.57;;;;;;;9.10;76.51;100637.05;471146;1170;114920;-66
2021/03/30 19:26:55;;;;;;;58.75;45.10;;;;;;;9.10;77.15;100647.52;471209;1170;114280;-67
2021/03/30 19:36:59;;;;;;;63.07;45.83;;;;;;;8.96;77.30;100650.70;471608;1168;114608;-66
2021/03/30 19:47:03;;;;;;;63.00;48.13;;;;;;;8.82;77.87;100646.87;471696;1171;114884;-66
2021/03/30 19:57:08;;;;;;;59.67;44.70;;;;;;;8.75;78.43;100644.56;471851;1171;114080;-66
2021/03/30 20:07:12;;;;;;;50.83;38.97;;;;;;;8.62;78.41;100638.94;471831;1170;114545;-66
2021/03/30 20:17:16;;;;;;;45.13;36.13;;;;;;;8.48;79.04;100624.59;471308;1171;114953;-66
2021/03/30 20:27:20;;;;;;;40.50;33.33;;;;;;;8.48;79.83;100634.20;471439;1169;114264;-65
2021/03/30 20:37:27;;;;;;;51.45;36.70;;;;;;;8.51;80.20;100634.14;471581;1170;114957;-67
2021/03/30 20:47:31;;;;;;;52.33;40.73;;;;;;;8.40;80.13;100630.13;471645;1171;115056;-66
2021/03/30 20:57:37;;;;;;;48.55;37.95;;;;;;;8.25;80.40;100630.70;472124;1170;114570;-65
2021/03/30 21:07:41;;;;;;;55.90;38.90;;;;;;;8.17;80.69;100625.76;472092;1170;114594;-67
2021/03/30 21:17:45;;;;;;;44.30;35.87;;;;;;;7.99;80.86;100614.22;463754;1170;10001310;-63
2021/03/30 21:27:49;;;;;;;51.15;38.05;;;;;;;7.73;80.54;100621.25;471361;1171;114557;-65
2021/03/30 21:37:52;;;;;;;46.45;35.55;;;;;;;7.45;80.44;100616.14;471700;1170;114572;-64
2021/03/30 21:47:56;;;;;;;49.80;35.93;;;;;;;7.15;79.83;100607.52;471523;1169;115743;-60
2021/03/30 21:58:01;;;;;;;53.97;34.80;;;;;;;6.92;79.77;100600.47;471958;1170;114218;-61
2021/03/30 22:08:06;;;;;;;47.70;35.20;;;;;;;6.78;80.27;100602.68;471762;1170;114596;-74
2021/03/30 22:18:11;;;;;;;50.55;37.25;;;;;;;6.54;80.10;100599.94;473173;1170;114666;-74
2021/03/30 22:28:17;;;;;;;49.67;38.57;;;;;;;6.42;80.63;100590.72;471558;1169;114129;-74
2021/03/30 22:38:22;;;;;;;47.70;35.25;;;;;;;6.34;80.49;100587.48;471176;1170;114581;-62
2021/03/30 22:48:26;;;;;;;46.95;35.60;;;;;;;6.17;80.25;100591.47;471497;1170;114295;-62
2021/03/30 22:58:30;;;;;;;47.05;37.00;;;;;;;5.97;79.89;100602.45;471449;1170;115093;-61
2021/03/30 23:08:35;;;;;;;47.00;33.57;;;;;;;5.82;79.59;100594.16;471128;1168;114316;-61
2021/03/30 23:18:39;;;;;;;45.55;33.35;;;;;;;5.70;80.19;100600.58;471276;1170;114135;-60
2021/03/30 23:28:42;;;;;;;50.23;35.40;;;;;;;5.61;80.25;100608.64;471289;1169;114610;-60
2021/03/30 23:38:46;;;;;;;42.77;33.40;;;;;;;5.50;79.65;100603.73;471281;1170;114473;-69
2021/03/30 23:48:50;;;;;;;45.30;34.75;;;;;;;5.44;80.55;100591.73;471196;1168;114087;-69
2021/03/30 23:58:54;;;;;;;40.95;31.05;;;;;;;5.43;80.72;100589.15;471386;1170;114079;-70
